European Causeway — C6RG7 — position and weather

sailwx.info

Track history (hours):
 
Tides and Currents Weather Stations Pressure Air Temp Water Temp Dewpoint Dewpoint Depression Visibility Wind Speed Wind Dir Waves Ship Positions

European Causeway

Operator: P & O Irish Sea

Last reported at 2020-Jan-19 08:24 UTC. Time now 2020-Jan-19 15:27 UTC.
Position N 54°58' W 005°21'.

Length 145 m; draft 5.5 m.

Type: Passenger vessel. MMSI: 311027000.

Date/timePositionNaut miles runAvg speedWind from/ knotsBaromVisibWave heightAir tempDewpointWater temp
2020-Jan-19 08:24N 54°58' W 005°21'17 8.7
2020-Jan-19 06:25N 54°51' W 005°48'0 0.0
2020-Jan-19 04:28N 54°51' W 005°48'0 0.0
2020-Jan-19 03:28N 54°51' W 005°48'0 0.0
2020-Jan-19 00:58N 54°51' W 005°48'0 0.0
2020-Jan-19 00:13N 54°51' W 005°48'0 0.0
2020-Jan-18 22:00N 54°51' W 005°48'2013.2
2020-Jan-18 20:28N 55°00' W 005°16'1 0.4
2020-Jan-18 17:51N 54°60' W 005°15'920.7
2020-Jan-18 17:24N 54°56' W 005°29'1212.7
2020-Jan-18 16:29N 54°51' W 005°48'0 0.0
2020-Jan-18 15:27N 54°51' W 005°48'812.3
2020-Jan-18 14:46N 54°55' W 005°35'8 1.9
2020-Jan-18 10:24N 54°51' W 005°48'0 0.3
2020-Jan-18 09:58N 54°51' W 005°48'0 0.0
2020-Jan-18 03:53N 54°51' W 005°48'0 0.1
2020-Jan-18 02:00N 54°51' W 005°48'1514.0
2020-Jan-18 00:56N 54°58' W 005°25'15 3.0
2020-Jan-17 19:56N 54°51' W 005°48'0 0.1
2020-Jan-17 18:25N 54°51' W 005°48'21 5.7
2020-Jan-17 14:39N 55°00' W 005°15'0 0.1
2020-Jan-17 11:07N 55°00' W 005°15'6 2.2
2020-Jan-17 08:18N 54°57' W 005°24'1511.4
2020-Jan-17 06:59N 54°51' W 005°48'15 7.3
2020-Jan-17 04:56N 54°58' W 005°25'7 1.5
2020-Jan-17 00:30N 54°54' W 005°35'5 0.8
2020-Jan-16 17:24N 54°57' W 005°26'820.1
2020-Jan-16 16:59N 54°53' W 005°40'16 3.1
2020-Jan-16 11:48N 54°60' W 005°14'2119.6
2020-Jan-16 10:43N 54°51' W 005°48'0 0.1
2020-Jan-16 09:30N 54°51' W 005°48'11 2.3
2020-Jan-16 04:26N 54°56' W 005°30'1119.5
2020-Jan-16 03:51N 54°51' W 005°48'0 0.1
2020-Jan-16 02:50N 54°51' W 005°48'0 0.0
2020-Jan-16 02:20N 54°51' W 005°48'7 6.9
2020-Jan-16 01:21N 54°54' W 005°38'7 1.3
2020-Jan-15 19:59N 54°51' W 005°48'0 0.0
2020-Jan-15 14:01N 54°51' W 005°48'13 2.3
2020-Jan-15 08:17N 54°56' W 005°27'9 1.2
2020-Jan-15 01:16N 55°00' W 005°13'2217.3
2020-Jan-15 00:00N 54°51' W 005°48'15 5.0
2020-Jan-14 21:02N 54°59' W 005°26'519.8
2020-Jan-14 20:47N 55°01' W 005°19'3 0.8
2020-Jan-14 17:46N 54°60' W 005°15'1320.1
2020-Jan-14 17:09N 54°55' W 005°35'319.9
2020-Jan-14 16:59N 54°53' W 005°40'10 4.1
2020-Jan-14 14:41N 54°58' W 005°25'6 2.4
2020-Jan-14 11:58N 55°00' W 005°15'1220.6
2020-Jan-14 11:23N 54°55' W 005°33'920.8
2020-Jan-14 10:58N 54°52' W 005°47'1 0.9
2020-Jan-14 09:48N 54°51' W 005°48'21 4.8
2020-Jan-14 05:21N 55°01' W 005°15'21 2.3
2020-Jan-13 20:19N 54°51' W 005°48'0 0.0
2020-Jan-13 17:57N 54°51' W 005°48'0 0.0
2020-Jan-13 12:00N 54°51' W 005°48'0 0.0
2020-Jan-13 11:00N 54°51' W 005°48'21 6.8
2020-Jan-13 07:56N 55°01' W 005°16'5 1.5
2020-Jan-13 04:51N 54°58' W 005°22'720.2
2020-Jan-13 04:30N 54°55' W 005°33'918.2
2020-Jan-13 04:00N 54°51' W 005°48'0 0.6
2020-Jan-13 03:30N 54°51' W 005°48'0 0.0
2020-Jan-13 02:00N 54°51' W 005°48'4 7.5
2020-Jan-13 01:25N 54°53' W 005°42'1617.6
2020-Jan-13 00:30N 55°00' W 005°16'15 3.6
2020-Jan-12 20:23N 54°54' W 005°39'6 3.0
2020-Jan-12 18:30N 54°51' W 005°48'1514.2
2020-Jan-12 17:26N 54°58' W 005°25'15 3.0
2020-Jan-12 12:28N 54°51' W 005°48'0 0.0
2020-Jan-12 11:28N 54°51' W 005°48'0 0.0
2020-Jan-12 10:04N 54°51' W 005°48'9 7.1
2020-Jan-12 08:51N 54°55' W 005°35'1117.2
2020-Jan-12 08:11N 55°00' W 005°17'1 0.1
2020-Jan-11 21:08N 55°00' W 005°15'517.2
2020-Jan-11 20:50N 54°58' W 005°22'16 1.1
2020-Jan-11 06:16N 54°51' W 005°48'0 0.0
2020-Jan-10 23:56N 54°51' W 005°48'0 0.2
2020-Jan-10 23:07N 54°51' W 005°48'8 1.3
2020-Jan-10 17:03N 54°54' W 005°36'121.4
2020-Jan-10 17:00N 54°54' W 005°37'7 4.5
2020-Jan-10 15:29N 54°51' W 005°48'0 0.0
2020-Jan-10 10:30N 54°51' W 005°48'15 7.4
2020-Jan-10 08:30N 54°58' W 005°25'10 1.4
2020-Jan-10 01:22N 54°54' W 005°40'1018.4
2020-Jan-10 00:51N 54°58' W 005°25'15 2.4
2020-Jan-09 18:39N 54°51' W 005°48'2014.3
2020-Jan-09 17:15N 54°60' W 005°17'12 3.6
2020-Jan-09 14:05N 54°55' W 005°34'13 2.4
2020-Jan-09 08:43N 54°60' W 005°14'  
Track history (hours):
 
Tides and Currents Weather Stations Pressure Air Temp Water Temp Dewpoint Dewpoint Depression Visibility Wind Speed Wind Dir Waves Ship Positions

European Causeway

Operator: P & O Irish Sea

Last reported at 2020-Jan-19 08:24 UTC. Time now 2020-Jan-19 15:27 UTC.
Position N 54°58' W 005°21'.

Length 145 m; draft 5.5 m.

Type: Passenger vessel. MMSI: 311027000.

Date/timePositionNaut miles runAvg speedWind from/ knotsBaromVisibWave heightAir tempDewpointWater temp
2020-Jan-19 08:24N 54°58' W 005°21'17 8.7
2020-Jan-19 06:25N 54°51' W 005°48'0 0.0
2020-Jan-19 04:28N 54°51' W 005°48'0 0.0
2020-Jan-19 03:28N 54°51' W 005°48'0 0.0
2020-Jan-19 00:58N 54°51' W 005°48'0 0.0
2020-Jan-19 00:13N 54°51' W 005°48'0 0.0
2020-Jan-18 22:00N 54°51' W 005°48'2013.2
2020-Jan-18 20:28N 55°00' W 005°16'1 0.4
2020-Jan-18 17:51N 54°60' W 005°15'920.7
2020-Jan-18 17:24N 54°56' W 005°29'1212.7
2020-Jan-18 16:29N 54°51' W 005°48'0 0.0
2020-Jan-18 15:27N 54°51' W 005°48'812.3
2020-Jan-18 14:46N 54°55' W 005°35'8 1.9
2020-Jan-18 10:24N 54°51' W 005°48'0 0.3
2020-Jan-18 09:58N 54°51' W 005°48'0 0.0
2020-Jan-18 03:53N 54°51' W 005°48'0 0.1
2020-Jan-18 02:00N 54°51' W 005°48'1514.0
2020-Jan-18 00:56N 54°58' W 005°25'15 3.0
2020-Jan-17 19:56N 54°51' W 005°48'0 0.1
2020-Jan-17 18:25N 54°51' W 005°48'21 5.7
2020-Jan-17 14:39N 55°00' W 005°15'0 0.1
2020-Jan-17 11:07N 55°00' W 005°15'6 2.2
2020-Jan-17 08:18N 54°57' W 005°24'1511.4
2020-Jan-17 06:59N 54°51' W 005°48'15 7.3
2020-Jan-17 04:56N 54°58' W 005°25'7 1.5
2020-Jan-17 00:30N 54°54' W 005°35'5 0.8
2020-Jan-16 17:24N 54°57' W 005°26'820.1
2020-Jan-16 16:59N 54°53' W 005°40'16 3.1
2020-Jan-16 11:48N 54°60' W 005°14'2119.6
2020-Jan-16 10:43N 54°51' W 005°48'0 0.1
2020-Jan-16 09:30N 54°51' W 005°48'11 2.3
2020-Jan-16 04:26N 54°56' W 005°30'1119.5
2020-Jan-16 03:51N 54°51' W 005°48'0 0.1
2020-Jan-16 02:50N 54°51' W 005°48'0 0.0
2020-Jan-16 02:20N 54°51' W 005°48'7 6.9
2020-Jan-16 01:21N 54°54' W 005°38'7 1.3
2020-Jan-15 19:59N 54°51' W 005°48'0 0.0
2020-Jan-15 14:01N 54°51' W 005°48'13 2.3
2020-Jan-15 08:17N 54°56' W 005°27'9 1.2
2020-Jan-15 01:16N 55°00' W 005°13'2217.3
2020-Jan-15 00:00N 54°51' W 005°48'15 5.0
2020-Jan-14 21:02N 54°59' W 005°26'519.8
2020-Jan-14 20:47N 55°01' W 005°19'3 0.8
2020-Jan-14 17:46N 54°60' W 005°15'1320.1
2020-Jan-14 17:09N 54°55' W 005°35'319.9
2020-Jan-14 16:59N 54°53' W 005°40'10 4.1
2020-Jan-14 14:41N 54°58' W 005°25'6 2.4
2020-Jan-14 11:58N 55°00' W 005°15'1220.6
2020-Jan-14 11:23N 54°55' W 005°33'920.8
2020-Jan-14 10:58N 54°52' W 005°47'1 0.9
2020-Jan-14 09:48N 54°51' W 005°48'21 4.8
2020-Jan-14 05:21N 55°01' W 005°15'21 2.3
2020-Jan-13 20:19N 54°51' W 005°48'0 0.0
2020-Jan-13 17:57N 54°51' W 005°48'0 0.0
2020-Jan-13 12:00N 54°51' W 005°48'0 0.0
2020-Jan-13 11:00N 54°51' W 005°48'21 6.8
2020-Jan-13 07:56N 55°01' W 005°16'5 1.5
2020-Jan-13 04:51N 54°58' W 005°22'720.2
2020-Jan-13 04:30N 54°55' W 005°33'918.2
2020-Jan-13 04:00N 54°51' W 005°48'0 0.6
2020-Jan-13 03:30N 54°51' W 005°48'0 0.0
2020-Jan-13 02:00N 54°51' W 005°48'4 7.5
2020-Jan-13 01:25N 54°53' W 005°42'1617.6
2020-Jan-13 00:30N 55°00' W 005°16'15 3.6
2020-Jan-12 20:23N 54°54' W 005°39'6 3.0
2020-Jan-12 18:30N 54°51' W 005°48'1514.2
2020-Jan-12 17:26N 54°58' W 005°25'15 3.0
2020-Jan-12 12:28N 54°51' W 005°48'0 0.0
2020-Jan-12 11:28N 54°51' W 005°48'0 0.0
2020-Jan-12 10:04N 54°51' W 005°48'9 7.1
2020-Jan-12 08:51N 54°55' W 005°35'1117.2
2020-Jan-12 08:11N 55°00' W 005°17'1 0.1
2020-Jan-11 21:08N 55°00' W 005°15'517.2
2020-Jan-11 20:50N 54°58' W 005°22'16 1.1
2020-Jan-11 06:16N 54°51' W 005°48'0 0.0
2020-Jan-10 23:56N 54°51' W 005°48'0 0.2
2020-Jan-10 23:07N 54°51' W 005°48'8 1.3
2020-Jan-10 17:03N 54°54' W 005°36'121.4
2020-Jan-10 17:00N 54°54' W 005°37'7 4.5
2020-Jan-10 15:29N 54°51' W 005°48'0 0.0
2020-Jan-10 10:30N 54°51' W 005°48'15 7.4
2020-Jan-10 08:30N 54°58' W 005°25'10 1.4
2020-Jan-10 01:22N 54°54' W 005°40'1018.4
2020-Jan-10 00:51N 54°58' W 005°25'15 2.4
2020-Jan-09 18:39N 54°51' W 005°48'2014.3
2020-Jan-09 17:15N 54°60' W 005°17'12 3.6
2020-Jan-09 14:05N 54°55' W 005°34'13 2.4
2020-Jan-09 08:43N 54°60' W 005°14'  

Dump ship's entire track history